^^
Your Local Weather - Clay, NY Station Historical Data
Daily Summary for February 14, 2018 Units:  Both    English   Metric
« Previous Day
Next Day »
Daily Weekly Monthly Yearly Custom
  High: Low: Average:
Temperature: 48.0 °F /  8.9 °C 22.5 °F /  -5.3 °C 34.3 °F /  1.3 °C
Dew Point: 35.0 °F /  1.7 °C 13.9 °F /  -10.1 °C 27 °F /  -2.8 °C
Humidity: 90% 60% 75%
Wind Speed: 5.0mph /  8km/h - 0.8mph /  1.3km/h
Wind Gust: 11.0mph /  17.7km/h - -
Wind- - SSW
Pressure: 30.36 in /  1028 hPa 29.91 in /  1012.8 hPa -
Precipitation: 0.00 in /  0 mm    
Historical Graphs
 
 
Tabular Data for February 14, 2018
Time Temperature Dew Point Pressure Wind Wind Speed Wind Gust Humidity Rainfall Rate (Hourly) solar
00:04 22.5 °F /  -5.3 °C 13.9 °F /  -10.1 °C 30.36in /  1028hPa East 1.0mph /  1.6km/h 2.0mph /  3.2km/h 69% 0.00in /  0mm 0 W/m2
00:10 22.6 °F /  -5.2 °C 14.0 °F /  -10 °C 30.36in /  1028hPa Calm     69% 0.00in /  0mm 0 W/m2
00:16 22.7 °F /  -5.2 °C 14.4 °F /  -9.8 °C 30.35in /  1027.7hPa Calm     70% 0.00in /  0mm 0 W/m2
00:22 22.8 °F /  -5.1 °C 14.5 °F /  -9.7 °C 30.34in /  1027.3hPa Calm     70% 0.00in /  0mm 0 W/m2
00:28 23.0 °F /  -5 °C 14.7 °F /  -9.6 °C 30.34in /  1027.3hPa Calm   2.0mph /  3.2km/h 70% 0.00in /  0mm 0 W/m2
00:34 23.1 °F /  -4.9 °C 14.4 °F /  -9.8 °C 30.34in /  1027.3hPa Calm     69% 0.00in /  0mm 0 W/m2
00:40 23.2 °F /  -4.9 °C 14.9 °F /  -9.5 °C 30.34in /  1027.3hPa Calm     70% 0.00in /  0mm 0 W/m2
00:46 23.4 °F /  -4.8 °C 15.1 °F /  -9.4 °C 30.34in /  1027.3hPa Calm     70% 0.00in /  0mm 0 W/m2
00:52 23.4 °F /  -4.8 °C 15.4 °F /  -9.2 °C 30.34in /  1027.3hPa Calm     71% 0.00in /  0mm 0 W/m2
00:58 23.4 °F /  -4.8 °C 15.4 °F /  -9.2 °C 30.33in /  1027hPa Calm   1.0mph /  1.6km/h 71% 0.00in /  0mm 0 W/m2
01:04 23.4 °F /  -4.8 °C 15.7 °F /  -9.1 °C 30.33in /  1027hPa Calm   1.0mph /  1.6km/h 72% 0.00in /  0mm 0 W/m2
01:10 23.4 °F /  -4.8 °C 15.7 °F /  -9.1 °C 30.33in /  1027hPa Calm     72% 0.00in /  0mm 0 W/m2
01:16 23.5 °F /  -4.7 °C 16.1 °F /  -8.8 °C 30.33in /  1027hPa Calm     73% 0.00in /  0mm 0 W/m2
01:22 23.6 °F /  -4.7 °C 16.2 °F /  -8.8 °C 30.32in /  1026.6hPa Calm     73% 0.00in /  0mm 0 W/m2
01:28 23.7 °F /  -4.6 °C 16.3 °F /  -8.7 °C 30.32in /  1026.6hPa Calm     73% 0.00in /  0mm 0 W/m2
01:34 23.8 °F /  -4.6 °C 16.7 °F /  -8.5 °C 30.31in /  1026.3hPa Calm   1.0mph /  1.6km/h 74% 0.00in /  0mm 0 W/m2
01:40 23.9 °F /  -4.5 °C 16.8 °F /  -8.4 °C 30.31in /  1026.3hPa Calm     74% 0.00in /  0mm 0 W/m2
01:46 24.0 °F /  -4.4 °C 16.9 °F /  -8.4 °C 30.31in /  1026.3hPa Calm     74% 0.00in /  0mm 0 W/m2
01:52 24.2 °F /  -4.3 °C 17.1 °F /  -8.3 °C 30.30in /  1026hPa Calm   1.0mph /  1.6km/h 74% 0.00in /  0mm 0 W/m2
01:58 24.2 °F /  -4.3 °C 17.4 °F /  -8.1 °C 30.29in /  1025.6hPa Calm   1.0mph /  1.6km/h 75% 0.00in /  0mm 0 W/m2
02:04 24.2 °F /  -4.3 °C 17.4 °F /  -8.1 °C 30.29in /  1025.6hPa Calm   1.0mph /  1.6km/h 75% 0.00in /  0mm 0 W/m2
02:10 24.6 °F /  -4.1 °C 17.8 °F /  -7.9 °C 30.29in /  1025.6hPa East 1.0mph /  1.6km/h 1.0mph /  1.6km/h 75% 0.00in /  0mm 0 W/m2
02:16 24.6 °F /  -4.1 °C 17.8 °F /  -7.9 °C 30.28in /  1025.3hPa Calm   1.0mph /  1.6km/h 75% 0.00in /  0mm 0 W/m2
02:22 24.6 °F /  -4.1 °C 18.1 °F /  -7.7 °C 30.28in /  1025.3hPa Calm     76% 0.00in /  0mm 0 W/m2
02:28 24.7 °F /  -4.1 °C 18.2 °F /  -7.7 °C 30.28in /  1025.3hPa Calm     76% 0.00in /  0mm 0 W/m2
02:34 24.8 °F /  -4 °C 18.3 °F /  -7.6 °C 30.28in /  1025.3hPa Calm     76% 0.00in /  0mm 0 W/m2
02:40 24.9 °F /  -3.9 °C 18.4 °F /  -7.6 °C 30.28in /  1025.3hPa Calm     76% 0.00in /  0mm 0 W/m2
02:46 25.1 °F /  -3.8 °C 18.6 °F /  -7.4 °C 30.28in /  1025.3hPa Calm     76% 0.00in /  0mm 0 W/m2
02:52 25.3 °F /  -3.7 °C 18.8 °F /  -7.3 °C 30.27in /  1024.9hPa Calm   1.0mph /  1.6km/h 76% 0.00in /  0mm 0 W/m2
02:58 25.4 °F /  -3.7 °C 18.9 °F /  -7.3 °C 30.26in /  1024.6hPa Calm   2.0mph /  3.2km/h 76% 0.00in /  0mm 0 W/m2
03:04 25.6 °F /  -3.6 °C 19.4 °F /  -7 °C 30.26in /  1024.6hPa Calm   2.0mph /  3.2km/h 77% 0.00in /  0mm 0 W/m2
03:10 25.8 °F /  -3.4 °C 19.6 °F /  -6.9 °C 30.25in /  1024.3hPa East 1.0mph /  1.6km/h 1.0mph /  1.6km/h 77% 0.00in /  0mm 0 W/m2
03:16 26.0 °F /  -3.3 °C 19.8 °F /  -6.8 °C 30.25in /  1024.3hPa East 1.0mph /  1.6km/h 2.0mph /  3.2km/h 77% 0.00in /  0mm 0 W/m2
03:22 26.4 °F /  -3.1 °C 20.2 °F /  -6.6 °C 30.25in /  1024.3hPa NE 2.0mph /  3.2km/h 3.0mph /  4.8km/h 77% 0.00in /  0mm 0 W/m2
03:28 26.6 °F /  -3 °C 20.1 °F /  -6.6 °C 30.25in /  1024.3hPa NE 2.0mph /  3.2km/h 3.0mph /  4.8km/h 76% 0.00in /  0mm 0 W/m2
03:36 26.7 °F /  -2.9 °C 20.5 °F /  -6.4 °C 30.24in /  1023.9hPa NE 2.0mph /  3.2km/h 2.0mph /  3.2km/h 77% 0.00in /  0mm 0 W/m2
03:42 26.7 °F /  -2.9 °C 20.8 °F /  -6.2 °C 30.24in /  1023.9hPa NE 1.0mph /  1.6km/h 2.0mph /  3.2km/h 78% 0.00in /  0mm 0 W/m2
03:48 26.9 °F /  -2.8 °C 21.0 °F /  -6.1 °C 30.24in /  1023.9hPa NE 1.0mph /  1.6km/h 2.0mph /  3.2km/h 78% 0.00in /  0mm 0 W/m2
03:54 26.9 °F /  -2.8 °C 21.0 °F /  -6.1 °C 30.24in /  1023.9hPa NE 1.0mph /  1.6km/h 2.0mph /  3.2km/h 78% 0.00in /  0mm 0 W/m2
04:00 26.9 °F /  -2.8 °C 21.0 °F /  -6.1 °C 30.23in /  1023.6hPa NE 1.0mph /  1.6km/h 1.0mph /  1.6km/h 78% 0.00in /  0mm 0 W/m2
04:12 27.2 °F /  -2.7 °C 21.2 °F /  -6 °C 30.22in /  1023.2hPa NE 1.0mph /  1.6km/h 1.0mph /  1.6km/h 78% 0.00in /  0mm 0 W/m2
04:18 27.2 °F /  -2.7 °C 21.2 °F /  -6 °C 30.22in /  1023.2hPa NE 1.0mph /  1.6km/h 1.0mph /  1.6km/h 78% 0.00in /  0mm 0 W/m2
04:30 27.4 °F /  -2.6 °C 21.4 °F /  -5.9 °C 30.22in /  1023.2hPa ENE 1.0mph /  1.6km/h 1.0mph /  1.6km/h 78% 0.00in /  0mm 0 W/m2
04:36 27.6 °F /  -2.4 °C 21.3 °F /  -5.9 °C 30.22in /  1023.2hPa ENE 1.0mph /  1.6km/h 1.0mph /  1.6km/h 77% 0.00in /  0mm 0 W/m2
04:42 27.7 °F /  -2.4 °C 21.4 °F /  -5.9 °C 30.22in /  1023.2hPa Calm     77% 0.00in /  0mm 0 W/m2
04:48 27.7 °F /  -2.4 °C 21.4 °F /  -5.9 °C 30.22in /  1023.2hPa ENE 1.0mph /  1.6km/h 1.0mph /  1.6km/h 77% 0.00in /  0mm 0 W/m2
04:54 27.7 °F /  -2.4 °C 21.7 °F /  -5.7 °C 30.22in /  1023.2hPa Calm   3.0mph /  4.8km/h 78% 0.00in /  0mm 0 W/m2
05:00 28.0 °F /  -2.2 °C 21.7 °F /  -5.7 °C 30.22in /  1023.2hPa ENE 1.0mph /  1.6km/h 1.0mph /  1.6km/h 77% 0.00in /  0mm 0 W/m2
05:06 28.2 °F /  -2.1 °C 21.6 °F /  -5.8 °C 30.21in /  1022.9hPa ENE 1.0mph /  1.6km/h 1.0mph /  1.6km/h 76% 0.00in /  0mm 0 W/m2
05:12 28.3 °F /  -2.1 °C 22.0 °F /  -5.6 °C 30.22in /  1023.2hPa Calm     77% 0.00in /  0mm 0 W/m2
05:18 28.3 °F /  -2.1 °C 22.0 °F /  -5.6 °C 30.22in /  1023.2hPa Calm     77% 0.00in /  0mm 0 W/m2
05:24 28.3 °F /  -2.1 °C 22.3 °F /  -5.4 °C 30.22in /  1023.2hPa Calm     78% 0.00in /  0mm 0 W/m2
05:30 28.2 °F /  -2.1 °C 22.2 °F /  -5.4 °C 30.22in /  1023.2hPa Calm     78% 0.00in /  0mm 0 W/m2
05:36 28.3 °F /  -2.1 °C 22.3 °F /  -5.4 °C 30.21in /  1022.9hPa Calm     78% 0.00in /  0mm 0 W/m2
05:42 28.4 °F /  -2 °C 22.7 °F /  -5.2 °C 30.20in /  1022.6hPa Calm     79% 0.00in /  0mm 0 W/m2
05:48 28.5 °F /  -1.9 °C 22.8 °F /  -5.1 °C 30.20in /  1022.6hPa Calm     79% 0.00in /  0mm 0 W/m2
05:54 28.5 °F /  -1.9 °C 22.8 °F /  -5.1 °C 30.20in /  1022.6hPa Calm     79% 0.00in /  0mm 0 W/m2
06:00 28.5 °F /  -1.9 °C 22.8 °F /  -5.1 °C 30.20in /  1022.6hPa Calm     79% 0.00in /  0mm 0 W/m2
06:06 28.5 °F /  -1.9 °C 22.5 °F /  -5.3 °C 30.20in /  1022.6hPa Calm     78% 0.00in /  0mm 0 W/m2
06:12 28.5 °F /  -1.9 °C 22.8 °F /  -5.1 °C 30.20in /  1022.6hPa Calm   1.0mph /  1.6km/h 79% 0.00in /  0mm 0 W/m2
06:18 28.6 °F /  -1.9 °C 22.9 °F /  -5.1 °C 30.20in /  1022.6hPa Calm   1.0mph /  1.6km/h 79% 0.00in /  0mm 0 W/m2
06:24 28.6 °F /  -1.9 °C 22.9 °F /  -5.1 °C 30.20in /  1022.6hPa Calm     79% 0.00in /  0mm 0 W/m2
06:30 28.7 °F /  -1.8 °C 23.0 °F /  -5 °C 30.20in /  1022.6hPa Calm     79% 0.00in /  0mm 0 W/m2
06:36 28.8 °F /  -1.8 °C 23.1 °F /  -4.9 °C 30.20in /  1022.6hPa Calm     79% 0.00in /  0mm 0 W/m2
06:42 28.9 °F /  -1.7 °C 23.2 °F /  -4.9 °C 30.20in /  1022.6hPa Calm     79% 0.00in /  0mm 0 W/m2
06:48 28.9 °F /  -1.7 °C 23.2 °F /  -4.9 °C 30.19in /  1022.2hPa Calm   1.0mph /  1.6km/h 79% 0.00in /  0mm 0 W/m2
06:54 28.9 °F /  -1.7 °C 23.2 °F /  -4.9 °C 30.19in /  1022.2hPa Calm     79% 0.00in /  0mm 0 W/m2
07:00 29.0 °F /  -1.7 °C 23.6 °F /  -4.7 °C 30.19in /  1022.2hPa Calm     80% 0.00in /  0mm 0 W/m2
07:06 29.1 °F /  -1.6 °C 23.4 °F /  -4.8 °C 30.19in /  1022.2hPa Calm     79% 0.00in /  0mm 0 W/m2
07:12 29.2 °F /  -1.6 °C 23.5 °F /  -4.7 °C 30.19in /  1022.2hPa Calm     79% 0.00in /  0mm 0 W/m2
07:18 29.3 °F /  -1.5 °C 23.6 °F /  -4.7 °C 30.19in /  1022.2hPa Calm     79% 0.00in /  0mm 5 W/m2
07:24 29.4 °F /  -1.4 °C 23.7 °F /  -4.6 °C 30.19in /  1022.2hPa Calm     79% 0.00in /  0mm 5 W/m2
07:30 29.5 °F /  -1.4 °C 23.8 °F /  -4.6 °C 30.19in /  1022.2hPa Calm     79% 0.00in /  0mm 9 W/m2
07:36 29.5 °F /  -1.4 °C 23.8 °F /  -4.6 °C 30.19in /  1022.2hPa Calm     79% 0.00in /  0mm 11 W/m2
07:42 29.6 °F /  -1.3 °C 23.9 °F /  -4.5 °C 30.19in /  1022.2hPa Calm     79% 0.00in /  0mm 14 W/m2
07:48 29.7 °F /  -1.3 °C 24.0 °F /  -4.4 °C 30.19in /  1022.2hPa Calm     79% 0.00in /  0mm 11 W/m2
07:54 29.7 °F /  -1.3 °C 24.0 °F /  -4.4 °C 30.19in /  1022.2hPa Calm     79% 0.00in /  0mm 14 W/m2
08:00 29.8 °F /  -1.2 °C 24.1 °F /  -4.4 °C 30.19in /  1022.2hPa Calm     79% 0.00in /  0mm 16 W/m2
08:06 29.9 °F /  -1.2 °C 24.2 °F /  -4.3 °C 30.19in /  1022.2hPa Calm     79% 0.00in /  0mm 16 W/m2
08:12 30.0 °F /  -1.1 °C 24.3 °F /  -4.3 °C 30.19in /  1022.2hPa Calm     79% 0.00in /  0mm 12 W/m2
08:18 30.1 °F /  -1.1 °C 24.4 °F /  -4.2 °C 30.19in /  1022.2hPa Calm     79% 0.00in /  0mm 28 W/m2
08:24 30.3 °F /  -0.9 °C 24.6 °F /  -4.1 °C 30.19in /  1022.2hPa Calm     79% 0.00in /  0mm 32 W/m2
08:30 30.5 °F /  -0.8 °C 24.8 °F /  -4 °C 30.20in /  1022.6hPa Calm     79% 0.00in /  0mm 33 W/m2
08:36 30.7 °F /  -0.7 °C 25.0 °F /  -3.9 °C 30.19in /  1022.2hPa Calm     79% 0.00in /  0mm 39 W/m2
08:42 30.9 °F /  -0.6 °C 25.5 °F /  -3.6 °C 30.19in /  1022.2hPa Calm     80% 0.00in /  0mm 46 W/m2
08:48 31.2 °F /  -0.4 °C 25.7 °F /  -3.5 °C 30.19in /  1022.2hPa Calm     80% 0.00in /  0mm 49 W/m2
08:54 31.5 °F /  -0.3 °C 26.0 °F /  -3.3 °C 30.19in /  1022.2hPa Calm     80% 0.00in /  0mm 54 W/m2
09:00 31.7 °F /  -0.2 °C 26.2 °F /  -3.2 °C 30.19in /  1022.2hPa Calm     80% 0.00in /  0mm 60 W/m2
09:06 31.9 °F /  -0.1 °C 26.4 °F /  -3.1 °C 30.19in /  1022.2hPa Calm     80% 0.00in /  0mm 77 W/m2
09:12 32.3 °F /  0.2 °C 26.5 °F /  -3.1 °C 30.19in /  1022.2hPa Calm   1.0mph /  1.6km/h 79% 0.00in /  0mm 91 W/m2
09:18 32.7 °F /  0.4 °C 26.9 °F /  -2.8 °C 30.19in /  1022.2hPa Calm   3.0mph /  4.8km/h 79% 0.00in /  0mm 107 W/m2
09:24 33.1 °F /  0.6 °C 27.3 °F /  -2.6 °C 30.19in /  1022.2hPa NNW 1.0mph /  1.6km/h 3.0mph /  4.8km/h 79% 0.00in /  0mm 97 W/m2
09:30 33.5 °F /  0.8 °C 27.4 °F /  -2.6 °C 30.19in /  1022.2hPa NNW 1.0mph /  1.6km/h 1.0mph /  1.6km/h 78% 0.00in /  0mm 118 W/m2
09:36 34.0 °F /  1.1 °C 27.9 °F /  -2.3 °C 30.19in /  1022.2hPa Calm   1.0mph /  1.6km/h 78% 0.00in /  0mm 120 W/m2
09:42 34.5 °F /  1.4 °C 28.0 °F /  -2.2 °C 30.19in /  1022.2hPa Calm   1.0mph /  1.6km/h 77% 0.00in /  0mm 118 W/m2
09:48 35.2 °F /  1.8 °C 28.4 °F /  -2 °C 30.18in /  1021.9hPa Calm   1.0mph /  1.6km/h 76% 0.00in /  0mm 123 W/m2
09:54 35.5 °F /  1.9 °C 28.4 °F /  -2 °C 30.18in /  1021.9hPa Calm     75% 0.00in /  0mm 128 W/m2
10:00 36.1 °F /  2.3 °C 28.9 °F /  -1.7 °C 30.18in /  1021.9hPa Calm     75% 0.00in /  0mm 120 W/m2
10:06 36.6 °F /  2.6 °C 29.1 °F /  -1.6 °C 30.18in /  1021.9hPa Calm     74% 0.00in /  0mm 148 W/m2
10:12 37.1 °F /  2.8 °C 29.2 °F /  -1.6 °C 30.17in /  1021.6hPa Calm     73% 0.00in /  0mm 186 W/m2
10:18 37.7 °F /  3.2 °C 30.2 °F /  -1 °C 30.17in /  1021.6hPa Calm   3.0mph /  4.8km/h 74% 0.00in /  0mm 218 W/m2
10:24 39.2 °F /  4 °C 31.9 °F /  -0.1 °C 30.17in /  1021.6hPa South 1.0mph /  1.6km/h 5.0mph /  8km/h 75% 0.00in /  0mm 216 W/m2
10:30 40.0 °F /  4.4 °C 32.4 °F /  0.2 °C 30.17in /  1021.6hPa SSE 2.0mph /  3.2km/h 2.0mph /  3.2km/h 74% 0.00in /  0mm 206 W/m2
10:36 40.3 °F /  4.6 °C 32.7 °F /  0.4 °C 30.16in /  1021.2hPa SSW 2.0mph /  3.2km/h 4.0mph /  6.4km/h 74% 0.00in /  0mm 218 W/m2
10:42 40.5 °F /  4.7 °C 32.5 °F /  0.3 °C 30.15in /  1020.9hPa SSW 3.0mph /  4.8km/h 5.0mph /  8km/h 73% 0.00in /  0mm 241 W/m2
10:48 40.9 °F /  4.9 °C 32.9 °F /  0.5 °C 30.15in /  1020.9hPa South 3.0mph /  4.8km/h 5.0mph /  8km/h 73% 0.00in /  0mm 309 W/m2
10:54 41.3 °F /  5.2 °C 33.0 °F /  0.6 °C 30.15in /  1020.9hPa SSW 2.0mph /  3.2km/h 3.0mph /  4.8km/h 72% 0.00in /  0mm 257 W/m2
11:00 41.4 °F /  5.2 °C 33.0 °F /  0.6 °C 30.15in /  1020.9hPa SSW 2.0mph /  3.2km/h 5.0mph /  8km/h 72% 0.00in /  0mm 264 W/m2
11:06 41.4 °F /  5.2 °C 33.0 °F /  0.6 °C 30.15in /  1020.9hPa SSW 3.0mph /  4.8km/h 5.0mph /  8km/h 72% 0.00in /  0mm 250 W/m2
11:12 41.3 °F /  5.2 °C 33.0 °F /  0.6 °C 30.14in /  1020.5hPa SSE 3.0mph /  4.8km/h 7.0mph /  11.3km/h 72% 0.00in /  0mm 260 W/m2
11:18 41.6 °F /  5.3 °C 33.6 °F /  0.9 °C 30.14in /  1020.5hPa SW 3.0mph /  4.8km/h 7.0mph /  11.3km/h 73% 0.00in /  0mm 290 W/m2
11:24 42.0 °F /  5.6 °C 33.6 °F /  0.9 °C 30.14in /  1020.5hPa SSW 2.0mph /  3.2km/h 7.0mph /  11.3km/h 72% 0.00in /  0mm 294 W/m2
11:30 42.1 °F /  5.6 °C 33.7 °F /  0.9 °C 30.14in /  1020.5hPa SW 3.0mph /  4.8km/h 3.0mph /  4.8km/h 72% 0.00in /  0mm 367 W/m2
11:36 42.6 °F /  5.9 °C 33.9 °F /  1.1 °C 30.14in /  1020.5hPa South 3.0mph /  4.8km/h 3.0mph /  4.8km/h 71% 0.00in /  0mm 301 W/m2
11:42 42.9 °F /  6.1 °C 34.1 °F /  1.2 °C 30.12in /  1019.9hPa SW 4.0mph /  6.4km/h 9.0mph /  14.5km/h 71% 0.00in /  0mm 380 W/m2
11:48 43.6 °F /  6.4 °C 34.1 °F /  1.2 °C 30.12in /  1019.9hPa SW 4.0mph /  6.4km/h 9.0mph /  14.5km/h 69% 0.00in /  0mm 417 W/m2
11:54 43.8 °F /  6.6 °C 33.9 °F /  1.1 °C 30.12in /  1019.9hPa South 4.0mph /  6.4km/h 6.0mph /  9.7km/h 68% 0.00in /  0mm 316 W/m2
12:00 43.6 °F /  6.4 °C 34.1 °F /  1.2 °C 30.11in /  1019.5hPa SW 4.0mph /  6.4km/h 5.0mph /  8km/h 69% 0.00in /  0mm 329 W/m2
12:06 44.2 °F /  6.8 °C 34.3 °F /  1.3 °C 30.11in /  1019.5hPa WSW 4.0mph /  6.4km/h 5.0mph /  8km/h 68% 0.00in /  0mm 457 W/m2
12:12 44.7 °F /  7.1 °C 34.4 °F /  1.3 °C 30.11in /  1019.5hPa SW 3.0mph /  4.8km/h 4.0mph /  6.4km/h 67% 0.00in /  0mm 768 W/m2
12:18 44.8 °F /  7.1 °C 34.1 °F /  1.2 °C 30.11in /  1019.5hPa WSW 3.0mph /  4.8km/h 5.0mph /  8km/h 66% 0.00in /  0mm 283 W/m2
12:24 45.2 °F /  7.3 °C 34.5 °F /  1.4 °C 30.10in /  1019.2hPa WSW 4.0mph /  6.4km/h 5.0mph /  8km/h 66% 0.00in /  0mm 345 W/m2
12:30 44.9 °F /  7.2 °C 34.2 °F /  1.2 °C 30.10in /  1019.2hPa South 4.0mph /  6.4km/h 4.0mph /  6.4km/h 66% 0.00in /  0mm 359 W/m2
12:36 46.0 °F /  7.8 °C 34.9 °F /  1.6 °C 30.10in /  1019.2hPa WSW 3.0mph /  4.8km/h 4.0mph /  6.4km/h 65% 0.00in /  0mm 359 W/m2
12:42 45.3 °F /  7.4 °C 34.2 °F /  1.2 °C 30.09in /  1018.8hPa WSW 3.0mph /  4.8km/h 8.0mph /  12.9km/h 65% 0.00in /  0mm 299 W/m2
12:48 44.8 °F /  7.1 °C 34.1 °F /  1.2 °C 30.09in /  1018.8hPa West 5.0mph /  8km/h 11.0mph /  17.7km/h 66% 0.00in /  0mm 323 W/m2
12:54 44.5 °F /  6.9 °C 33.8 °F /  1 °C 30.09in /  1018.8hPa SW 5.0mph /  8km/h 10.0mph /  16.1km/h 66% 0.00in /  0mm 297 W/m2
13:00 45.5 °F /  7.5 °C 34.4 °F /  1.3 °C 30.09in /  1018.8hPa West 4.0mph /  6.4km/h 7.0mph /  11.3km/h 65% 0.00in /  0mm 786 W/m2
13:06 45.9 °F /  7.7 °C 34.4 °F /  1.3 °C 30.09in /  1018.8hPa WSW 3.0mph /  4.8km/h 7.0mph /  11.3km/h 64% 0.00in /  0mm 341 W/m2
13:12 45.3 °F /  7.4 °C 33.8 °F /  1 °C 30.08in /  1018.5hPa SW 4.0mph /  6.4km/h 4.0mph /  6.4km/h 64% 0.00in /  0mm 292 W/m2
13:18 45.7 °F /  7.6 °C 34.2 °F /  1.2 °C 30.08in /  1018.5hPa SW 4.0mph /  6.4km/h 7.0mph /  11.3km/h 64% 0.00in /  0mm 292 W/m2
13:24 45.8 °F /  7.7 °C 34.3 °F /  1.3 °C 30.07in /  1018.2hPa West 4.0mph /  6.4km/h 5.0mph /  8km/h 64% 0.00in /  0mm 698 W/m2
13:30 46.2 °F /  7.9 °C 34.3 °F /  1.3 °C 30.07in /  1018.2hPa SW 5.0mph /  8km/h 5.0mph /  8km/h 63% 0.00in /  0mm 591 W/m2
13:36 46.3 °F /  7.9 °C 34.4 °F /  1.3 °C 30.07in /  1018.2hPa WSW 4.0mph /  6.4km/h 5.0mph /  8km/h 63% 0.00in /  0mm 462 W/m2
13:42 46.9 °F /  8.3 °C 34.6 °F /  1.4 °C 30.07in /  1018.2hPa WSW 4.0mph /  6.4km/h 4.0mph /  6.4km/h 62% 0.00in /  0mm 661 W/m2
13:48 46.7 °F /  8.2 °C 34.4 °F /  1.3 °C 30.07in /  1018.2hPa WSW 4.0mph /  6.4km/h 6.0mph /  9.7km/h 62% 0.00in /  0mm 573 W/m2
13:54 46.4 °F /  8 °C 34.5 °F /  1.4 °C 30.07in /  1018.2hPa West 3.0mph /  4.8km/h 4.0mph /  6.4km/h 63% 0.00in /  0mm 251 W/m2
14:00 46.2 °F /  7.9 °C 34.3 °F /  1.3 °C 30.07in /  1018.2hPa SW 3.0mph /  4.8km/h 3.0mph /  4.8km/h 63% 0.00in /  0mm 236 W/m2
14:06 46.2 °F /  7.9 °C 34.3 °F /  1.3 °C 30.07in /  1018.2hPa SW 2.0mph /  3.2km/h 3.0mph /  4.8km/h 63% 0.00in /  0mm 229 W/m2
14:12 46.1 °F /  7.8 °C 34.6 °F /  1.4 °C 30.06in /  1017.8hPa WSW 2.0mph /  3.2km/h 4.0mph /  6.4km/h 64% 0.00in /  0mm 309 W/m2
14:18 46.4 °F /  8 °C 34.5 °F /  1.4 °C 30.06in /  1017.8hPa WSW 2.0mph /  3.2km/h 4.0mph /  6.4km/h 63% 0.00in /  0mm 299 W/m2
14:24 46.6 °F /  8.1 °C 34.7 °F /  1.5 °C 30.06in /  1017.8hPa WSW 3.0mph /  4.8km/h 5.0mph /  8km/h 63% 0.00in /  0mm 260 W/m2
14:30 47.5 °F /  8.6 °C 34.7 °F /  1.5 °C 30.06in /  1017.8hPa WSW 2.0mph /  3.2km/h 2.0mph /  3.2km/h 61% 0.00in /  0mm 575 W/m2
14:36 47.4 °F /  8.6 °C 34.6 °F /  1.4 °C 30.06in /  1017.8hPa SW 2.0mph /  3.2km/h 5.0mph /  8km/h 61% 0.00in /  0mm 446 W/m2
14:48 48.0 °F /  8.9 °C 34.8 °F /  1.6 °C 30.06in /  1017.8hPa WSW 3.0mph /  4.8km/h 6.0mph /  9.7km/h 60% 0.00in /  0mm 390 W/m2
14:54 47.4 °F /  8.6 °C 34.6 °F /  1.4 °C 30.06in /  1017.8hPa WSW 2.0mph /  3.2km/h 3.0mph /  4.8km/h 61% 0.00in /  0mm 195 W/m2
15:00 46.8 °F /  8.2 °C 34.5 °F /  1.4 °C 30.06in /  1017.8hPa West 2.0mph /  3.2km/h 2.0mph /  3.2km/h 62% 0.00in /  0mm 274 W/m2
15:06 47.1 °F /  8.4 °C 34.7 °F /  1.5 °C 30.05in /  1017.5hPa West 1.0mph /  1.6km/h 2.0mph /  3.2km/h 62% 0.00in /  0mm 367 W/m2
15:12 47.4 °F /  8.6 °C 35.0 °F /  1.7 °C 30.05in /  1017.5hPa West 2.0mph /  3.2km/h 4.0mph /  6.4km/h 62% 0.00in /  0mm 420 W/m2
15:18 47.9 °F /  8.8 °C 34.7 °F /  1.5 °C 30.05in /  1017.5hPa West 2.0mph /  3.2km/h 4.0mph /  6.4km/h 60% 0.00in /  0mm 359 W/m2
15:24 48.0 °F /  8.9 °C 34.8 °F /  1.6 °C 30.05in /  1017.5hPa WSW 2.0mph /  3.2km/h 5.0mph /  8km/h 60% 0.00in /  0mm 353 W/m2
15:30 47.7 °F /  8.7 °C 34.9 °F /  1.6 °C 30.04in /  1017.2hPa South 3.0mph /  4.8km/h 4.0mph /  6.4km/h 61% 0.00in /  0mm 376 W/m2
15:36 47.6 °F /  8.7 °C 34.8 °F /  1.6 °C 30.04in /  1017.2hPa SW 3.0mph /  4.8km/h 5.0mph /  8km/h 61% 0.00in /  0mm 323 W/m2
15:42 47.7 °F /  8.7 °C 34.9 °F /  1.6 °C 30.04in /  1017.2hPa SW 2.0mph /  3.2km/h 3.0mph /  4.8km/h 61% 0.00in /  0mm 299 W/m2
15:48 47.6 °F /  8.7 °C 34.8 °F /  1.6 °C 30.04in /  1017.2hPa SW 3.0mph /  4.8km/h 3.0mph /  4.8km/h 61% 0.00in /  0mm 272 W/m2
15:54 47.5 °F /  8.6 °C 34.7 °F /  1.5 °C 30.04in /  1017.2hPa WSW 2.0mph /  3.2km/h 3.0mph /  4.8km/h 61% 0.00in /  0mm 255 W/m2
16:00 47.5 °F /  8.6 °C 34.7 °F /  1.5 °C 30.04in /  1017.2hPa SW 2.0mph /  3.2km/h 2.0mph /  3.2km/h 61% 0.00in /  0mm 234 W/m2
16:06 47.7 °F /  8.7 °C 34.9 °F /  1.6 °C 30.03in /  1016.8hPa SW 1.0mph /  1.6km/h 2.0mph /  3.2km/h 61% 0.00in /  0mm 213 W/m2
16:12 47.4 °F /  8.6 °C 34.6 °F /  1.4 °C 30.03in /  1016.8hPa SW 1.0mph /  1.6km/h 3.0mph /  4.8km/h 61% 0.00in /  0mm 183 W/m2
16:18 47.2 °F /  8.4 °C 34.8 °F /  1.6 °C 30.03in /  1016.8hPa WSW 1.0mph /  1.6km/h 3.0mph /  4.8km/h 62% 0.00in /  0mm 62 W/m2
16:24 47.0 °F /  8.3 °C 34.6 °F /  1.4 °C 30.03in /  1016.8hPa WSW 1.0mph /  1.6km/h 1.0mph /  1.6km/h 62% 0.00in /  0mm 56 W/m2
16:30 46.8 °F /  8.2 °C 34.5 °F /  1.4 °C 30.02in /  1016.5hPa WSW 1.0mph /  1.6km/h 1.0mph /  1.6km/h 62% 0.00in /  0mm 49 W/m2
16:36 46.7 °F /  8.2 °C 34.4 °F /  1.3 °C 30.02in /  1016.5hPa WSW 1.0mph /  1.6km/h 1.0mph /  1.6km/h 62% 0.00in /  0mm 46 W/m2
16:42 46.6 °F /  8.1 °C 34.7 °F /  1.5 °C 30.02in /  1016.5hPa Calm     63% 0.00in /  0mm 42 W/m2
16:48 46.5 °F /  8.1 °C 34.6 °F /  1.4 °C 30.02in /  1016.5hPa Calm   1.0mph /  1.6km/h 63% 0.00in /  0mm 37 W/m2
16:54 46.4 °F /  8 °C 34.5 °F /  1.4 °C 30.01in /  1016.1hPa Calm     63% 0.00in /  0mm 33 W/m2
17:00 46.2 °F /  7.9 °C 34.3 °F /  1.3 °C 30.01in /  1016.1hPa Calm     63% 0.00in /  0mm 30 W/m2
17:06 46.0 °F /  7.8 °C 34.5 °F /  1.4 °C 30.01in /  1016.1hPa Calm     64% 0.00in /  0mm 25 W/m2
17:12 45.7 °F /  7.6 °C 34.2 °F /  1.2 °C 30.01in /  1016.1hPa Calm     64% 0.00in /  0mm 21 W/m2
17:18 45.3 °F /  7.4 °C 33.8 °F /  1 °C 30.01in /  1016.1hPa Calm     64% 0.00in /  0mm 16 W/m2
17:24 43.9 °F /  6.6 °C 32.5 °F /  0.3 °C 30.01in /  1016.1hPa Calm     64% 0.00in /  0mm 11 W/m2
17:30 42.5 °F /  5.8 °C 32.3 °F /  0.2 °C 30.01in /  1016.1hPa Calm     67% 0.00in /  0mm 7 W/m2
17:36 41.8 °F /  5.4 °C 32.4 °F /  0.2 °C 30.00in /  1015.8hPa Calm     69% 0.00in /  0mm 5 W/m2
17:42 41.0 °F /  5 °C 32.0 °F /  0 °C 30.00in /  1015.8hPa Calm     70% 0.00in /  0mm 0 W/m2
17:48 40.5 °F /  4.7 °C 31.8 °F /  -0.1 °C 30.00in /  1015.8hPa Calm     71% 0.00in /  0mm 0 W/m2
17:54 40.0 °F /  4.4 °C 31.4 °F /  -0.3 °C 30.01in /  1016.1hPa Calm     71% 0.00in /  0mm 0 W/m2
18:00 39.6 °F /  4.2 °C 31.3 °F /  -0.4 °C 30.01in /  1016.1hPa Calm     72% 0.00in /  0mm 0 W/m2
18:06 39.0 °F /  3.9 °C 31.1 °F /  -0.5 °C 30.01in /  1016.1hPa Calm   1.0mph /  1.6km/h 73% 0.00in /  0mm 0 W/m2
18:12 38.3 °F /  3.5 °C 30.4 °F /  -0.9 °C 30.01in /  1016.1hPa Calm     73% 0.00in /  0mm 0 W/m2
18:18 37.7 °F /  3.2 °C 30.2 °F /  -1 °C 30.01in /  1016.1hPa Calm     74% 0.00in /  0mm 0 W/m2
18:24 37.2 °F /  2.9 °C 30.0 °F /  -1.1 °C 30.01in /  1016.1hPa Calm     75% 0.00in /  0mm 0 W/m2
18:30 36.8 °F /  2.7 °C 29.9 °F /  -1.2 °C 30.01in /  1016.1hPa Calm     76% 0.00in /  0mm 0 W/m2
18:36 36.3 °F /  2.4 °C 29.8 °F /  -1.2 °C 30.01in /  1016.1hPa Calm     77% 0.00in /  0mm 0 W/m2
18:42 35.9 °F /  2.2 °C 29.7 °F /  -1.3 °C 30.01in /  1016.1hPa Calm     78% 0.00in /  0mm 0 W/m2
18:48 35.6 °F /  2 °C 29.7 °F /  -1.3 °C 30.01in /  1016.1hPa Calm     79% 0.00in /  0mm 0 W/m2
18:54 35.3 °F /  1.8 °C 29.4 °F /  -1.4 °C 30.01in /  1016.1hPa Calm   1.0mph /  1.6km/h 79% 0.00in /  0mm 0 W/m2
19:00 35.0 °F /  1.7 °C 29.5 °F /  -1.4 °C 30.00in /  1015.8hPa Calm     80% 0.00in /  0mm 0 W/m2
19:06 34.9 °F /  1.6 °C 29.7 °F /  -1.3 °C 30.00in /  1015.8hPa Calm     81% 0.00in /  0mm 0 W/m2
19:12 34.4 °F /  1.3 °C 28.9 °F /  -1.7 °C 30.00in /  1015.8hPa Calm     80% 0.00in /  0mm 0 W/m2
19:18 33.9 °F /  1.1 °C 28.7 °F /  -1.8 °C 30.00in /  1015.8hPa Calm     81% 0.00in /  0mm 0 W/m2
19:24 33.7 °F /  0.9 °C 28.8 °F /  -1.8 °C 30.00in /  1015.8hPa Calm     82% 0.00in /  0mm 0 W/m2
19:30 33.4 °F /  0.8 °C 28.5 °F /  -1.9 °C 30.00in /  1015.8hPa Calm     82% 0.00in /  0mm 0 W/m2
19:36 33.4 °F /  0.8 °C 28.8 °F /  -1.8 °C 30.00in /  1015.8hPa Calm     83% 0.00in /  0mm 0 W/m2
19:42 33.2 °F /  0.7 °C 28.6 °F /  -1.9 °C 29.99in /  1015.5hPa Calm     83% 0.00in /  0mm 0 W/m2
19:48 33.0 °F /  0.6 °C 28.4 °F /  -2 °C 29.99in /  1015.5hPa Calm     83% 0.00in /  0mm 0 W/m2
19:54 32.7 °F /  0.4 °C 28.4 °F /  -2 °C 29.99in /  1015.5hPa Calm     84% 0.00in /  0mm 0 W/m2
20:00 32.5 °F /  0.3 °C 28.2 °F /  -2.1 °C 29.99in /  1015.5hPa Calm     84% 0.00in /  0mm 0 W/m2
20:06 32.2 °F /  0.1 °C 27.9 °F /  -2.3 °C 29.99in /  1015.5hPa Calm     84% 0.00in /  0mm 0 W/m2
20:12 32.0 °F /  0 °C 27.7 °F /  -2.4 °C 29.99in /  1015.5hPa Calm     84% 0.00in /  0mm 0 W/m2
20:18 31.8 °F /  -0.1 °C 27.5 °F /  -2.5 °C 29.99in /  1015.5hPa Calm     84% 0.00in /  0mm 0 W/m2
20:24 31.6 °F /  -0.2 °C 27.6 °F /  -2.4 °C 29.99in /  1015.5hPa Calm     85% 0.00in /  0mm 0 W/m2
20:30 31.4 °F /  -0.3 °C 27.4 °F /  -2.6 °C 29.99in /  1015.5hPa Calm     85% 0.00in /  0mm 0 W/m2
20:36 31.3 °F /  -0.4 °C 27.3 °F /  -2.6 °C 29.99in /  1015.5hPa Calm     85% 0.00in /  0mm 0 W/m2
20:42 31.0 °F /  -0.6 °C 27.0 °F /  -2.8 °C 29.99in /  1015.5hPa Calm     85% 0.00in /  0mm 0 W/m2
20:48 30.7 °F /  -0.7 °C 26.7 °F /  -2.9 °C 29.98in /  1015.1hPa Calm     85% 0.00in /  0mm 0 W/m2
20:54 30.4 °F /  -0.9 °C 26.7 °F /  -2.9 °C 29.98in /  1015.1hPa Calm     86% 0.00in /  0mm 0 W/m2
21:00 30.2 °F /  -1 °C 26.5 °F /  -3.1 °C 29.98in /  1015.1hPa Calm     86% 0.00in /  0mm 0 W/m2
21:06 30.0 °F /  -1.1 °C 26.3 °F /  -3.2 °C 29.98in /  1015.1hPa Calm     86% 0.00in /  0mm 0 W/m2
21:12 29.9 °F /  -1.2 °C 26.2 °F /  -3.2 °C 29.98in /  1015.1hPa Calm     86% 0.00in /  0mm 0 W/m2
21:18 29.7 °F /  -1.3 °C 26.3 °F /  -3.2 °C 29.98in /  1015.1hPa Calm     87% 0.00in /  0mm 0 W/m2
21:24 29.6 °F /  -1.3 °C 26.2 °F /  -3.2 °C 29.98in /  1015.1hPa Calm     87% 0.00in /  0mm 0 W/m2
21:30 29.5 °F /  -1.4 °C 26.1 °F /  -3.3 °C 29.97in /  1014.8hPa Calm     87% 0.00in /  0mm 0 W/m2
21:36 29.7 °F /  -1.3 °C 26.6 °F /  -3 °C 29.96in /  1014.4hPa Calm   2.0mph /  3.2km/h 88% 0.00in /  0mm 0 W/m2
21:42 29.7 °F /  -1.3 °C 26.6 °F /  -3 °C 29.96in /  1014.4hPa Calm     88% 0.00in /  0mm 0 W/m2
21:48 29.6 °F /  -1.3 °C 26.5 °F /  -3.1 °C 29.96in /  1014.4hPa Calm     88% 0.00in /  0mm 0 W/m2
21:54 29.4 °F /  -1.4 °C 26.3 °F /  -3.2 °C 29.95in /  1014.1hPa Calm     88% 0.00in /  0mm 0 W/m2
22:00 29.6 °F /  -1.3 °C 26.5 °F /  -3.1 °C 29.95in /  1014.1hPa Calm     88% 0.00in /  0mm 0 W/m2
22:06 29.9 °F /  -1.2 °C 27.1 °F /  -2.7 °C 29.95in /  1014.1hPa Calm     89% 0.00in /  0mm 0 W/m2
22:12 29.6 °F /  -1.3 °C 26.8 °F /  -2.9 °C 29.95in /  1014.1hPa Calm     89% 0.00in /  0mm 0 W/m2
22:18 29.5 °F /  -1.4 °C 26.7 °F /  -2.9 °C 29.95in /  1014.1hPa Calm     89% 0.00in /  0mm 0 W/m2
22:24 29.3 °F /  -1.5 °C 26.5 °F /  -3.1 °C 29.95in /  1014.1hPa Calm     89% 0.00in /  0mm 0 W/m2
22:30 29.2 °F /  -1.6 °C 26.4 °F /  -3.1 °C 29.95in /  1014.1hPa Calm     89% 0.00in /  0mm 0 W/m2
22:36 28.9 °F /  -1.7 °C 26.1 °F /  -3.3 °C 29.94in /  1013.8hPa Calm     89% 0.00in /  0mm 0 W/m2
22:42 28.7 °F /  -1.8 °C 25.9 °F /  -3.4 °C 29.94in /  1013.8hPa Calm     89% 0.00in /  0mm 0 W/m2
22:48 28.6 °F /  -1.9 °C 25.8 °F /  -3.4 °C 29.93in /  1013.4hPa Calm     89% 0.00in /  0mm 0 W/m2
22:54 28.5 °F /  -1.9 °C 25.7 °F /  -3.5 °C 29.93in /  1013.4hPa Calm     89% 0.00in /  0mm 0 W/m2
23:00 28.8 °F /  -1.8 °C 26.2 °F /  -3.2 °C 29.93in /  1013.4hPa Calm     90% 0.00in /  0mm 0 W/m2
23:06 28.7 °F /  -1.8 °C 25.9 °F /  -3.4 °C 29.93in /  1013.4hPa Calm     89% 0.00in /  0mm 0 W/m2
23:12 28.2 °F /  -2.1 °C 25.6 °F /  -3.6 °C 29.93in /  1013.4hPa Calm     90% 0.00in /  0mm 0 W/m2
23:18 27.8 °F /  -2.3 °C 25.0 °F /  -3.9 °C 29.93in /  1013.4hPa Calm     89% 0.00in /  0mm 0 W/m2
23:24 27.7 °F /  -2.4 °C 25.2 °F /  -3.8 °C 29.93in /  1013.4hPa Calm     90% 0.00in /  0mm 0 W/m2
23:30 27.6 °F /  -2.4 °C 25.1 °F /  -3.8 °C 29.92in /  1013.1hPa Calm     90% 0.00in /  0mm 0 W/m2
23:36 27.5 °F /  -2.5 °C 25.0 °F /  -3.9 °C 29.92in /  1013.1hPa Calm     90% 0.00in /  0mm 0 W/m2
23:42 27.6 °F /  -2.4 °C 25.1 °F /  -3.8 °C 29.92in /  1013.1hPa Calm     90% 0.00in /  0mm 0 W/m2
23:48 27.6 °F /  -2.4 °C 25.1 °F /  -3.8 °C 29.91in /  1012.8hPa Calm     90% 0.00in /  0mm 0 W/m2
23:54 27.7 °F /  -2.4 °C 25.2 °F /  -3.8 °C 29.91in /  1012.8hPa Calm     90% 0.00in /  0mm 0 W/m2
Country Meadow, Clay, NY, USA
Compliments of Weather Underground - 2 mb